Kezdőlap
METAR-TAF:

METAR-TAF

Repülőterek :

Hartford, Connecticut, Amerikai Egyesült Államok

földrajzi szélesség: 41-44-06N, földrajzi hosszúság: 072-39-06W, magasság: 5 m

Jelenlegi meteorológiai megfigyelések

A jelentés 24 perccel ezelõtt készült, 11:53 UTC
Déli szél 4 kt
Hőmérséklet 22°C
Páratartalom 83%
Légköri nyomás 1008 hPa
Látótávolság: 16.1 km
Szakadozott felhőzet 700 lábon
Borult 2000 lábon

METAR: KHFD 061153Z 17004KT 10SM BKN007 OVC020 22/19 A2978 RMK AO2 CIG 005V010 SLP085 70004 T02170194 10217 20211 55000

Idő: 08:17 (12:17 UTC)


TAF: hiányzik

Meteorológiai megfigyelések és előrejelzések több, mint 4000 repülőtéren (METAR és TAF jelentéseket).

A térképen piros és sárga pontok jelzik az elérhető meteorológiai állomásokat.

Mozgassa az egeret a pont fölött, hogy megjelenjen az állomás neve.

Azután kattintson az időjárási megfigyelések és előrejelzések megtekintéséhez.

A térkép megváltoztatása: kattintson a fekete keresztel jelölt zöld gombra ráközelítéshez, a vonallal jelölt zöld gombra távolításhoz, vagy a zöld nyilakra a szomszédos térképek eléréséhez.


METAR-TAF: